sensor_id;sensor_type;location;lat;lon;timestamp;pressure;altitude;pressure_sealevel;temperature;humidity
26443;BME280;5563;52.296;6.806;2023-09-30T00:01:37;102338.72;;;10.89;100.00
26443;BME280;5563;52.296;6.806;2023-09-30T00:04:15;102369.81;;;11.04;100.00
26443;BME280;5563;52.296;6.806;2023-09-30T00:06:47;102367.16;;;11.04;100.00
26443;BME280;5563;52.296;6.806;2023-09-30T00:09:25;102368.13;;;11.03;100.00
26443;BME280;5563;52.296;6.806;2023-09-30T00:12:02;102376.13;;;11.03;100.00
26443;BME280;5563;52.296;6.806;2023-09-30T00:14:37;102387.66;;;11.04;100.00
26443;BME280;5563;52.296;6.806;2023-09-30T00:17:14;102385.94;;;11.03;100.00
26443;BME280;5563;52.296;6.806;2023-09-30T00:19:46;102347.94;;;10.83;100.00
26443;BME280;5563;52.296;6.806;2023-09-30T00:22:21;102380.50;;;11.04;100.00
26443;BME280;5563;52.296;6.806;2023-09-30T00:25:06;102347.41;;;10.93;100.00
26443;BME280;5563;52.296;6.806;2023-09-30T00:27:45;102371.63;;;11.04;100.00
26443;BME280;5563;52.296;6.806;2023-09-30T00:30:22;102373.47;;;11.03;100.00
26443;BME280;5563;52.296;6.806;2023-09-30T00:32:59;102365.53;;;11.02;100.00
26443;BME280;5563;52.296;6.806;2023-09-30T00:35:36;102365.53;;;11.02;100.00
26443;BME280;5563;52.296;6.806;2023-09-30T00:38:14;102334.50;;;10.85;100.00
26443;BME280;5563;52.296;6.806;2023-09-30T00:40:54;102365.44;;;11.03;100.00
26443;BME280;5563;52.296;6.806;2023-09-30T00:43:31;102350.41;;;10.86;100.00
26443;BME280;5563;52.296;6.806;2023-09-30T00:46:32;102349.28;;;10.91;100.00
26443;BME280;5563;52.296;6.806;2023-09-30T00:49:07;102342.50;;;10.85;100.00
26443;BME280;5563;52.296;6.806;2023-09-30T00:51:46;102355.47;;;10.91;100.00
26443;BME280;5563;52.296;6.806;2023-09-30T00:54:26;102350.75;;;10.96;100.00
26443;BME280;5563;52.296;6.806;2023-09-30T00:57:34;102356.59;;;11.03;100.00
26443;BME280;5563;52.296;6.806;2023-09-30T01:00:15;102367.66;;;11.11;100.00
26443;BME280;5563;52.296;6.806;2023-09-30T01:02:55;102369.38;;;11.12;100.00
26443;BME280;5563;52.296;6.806;2023-09-30T01:05:56;102342.75;;;10.96;100.00
26443;BME280;5563;52.296;6.806;2023-09-30T01:08:40;102329.47;;;10.95;100.00
26443;BME280;5563;52.296;6.806;2023-09-30T01:11:30;102354.97;;;11.14;100.00
26443;BME280;5563;52.296;6.806;2023-09-30T01:14:00;102338.09;;;11.00;100.00
26443;BME280;5563;52.296;6.806;2023-09-30T01:16:40;102344.25;;;11.00;100.00
26443;BME280;5563;52.296;6.806;2023-09-30T01:19:17;102342.56;;;10.99;100.00
26443;BME280;5563;52.296;6.806;2023-09-30T01:22:02;102343.13;;;11.04;100.00
26443;BME280;5563;52.296;6.806;2023-09-30T01:24:43;102369.78;;;11.20;100.00
26443;BME280;5563;52.296;6.806;2023-09-30T01:27:25;102366.72;;;11.12;100.00
26443;BME280;5563;52.296;6.806;2023-09-30T01:29:57;102384.09;;;11.19;100.00
26443;BME280;5563;52.296;6.806;2023-09-30T01:32:34;102361.16;;;11.01;100.00
26443;BME280;5563;52.296;6.806;2023-09-30T01:35:05;102387.88;;;11.15;100.00
26443;BME280;5563;52.296;6.806;2023-09-30T01:37:54;102404.50;;;11.20;100.00
26443;BME280;5563;52.296;6.806;2023-09-30T01:40:34;102384.13;;;11.03;100.00
26443;BME280;5563;52.296;6.806;2023-09-30T01:43:13;102400.13;;;11.19;100.00
26443;BME280;5563;52.296;6.806;2023-09-30T01:45:49;102390.66;;;11.13;100.00
26443;BME280;5563;52.296;6.806;2023-09-30T01:48:19;102389.09;;;11.09;100.00
26443;BME280;5563;52.296;6.806;2023-09-30T01:50:59;102371.91;;;10.99;100.00
26443;BME280;5563;52.296;6.806;2023-09-30T01:53:44;102389.47;;;11.03;100.00
26443;BME280;5563;52.296;6.806;2023-09-30T01:56:15;102395.50;;;11.07;100.00
26443;BME280;5563;52.296;6.806;2023-09-30T01:58:54;102404.19;;;11.10;100.00
26443;BME280;5563;52.296;6.806;2023-09-30T02:01:31;102405.97;;;11.10;100.00
26443;BME280;5563;52.296;6.806;2023-09-30T02:04:06;102409.59;;;11.09;100.00
26443;BME280;5563;52.296;6.806;2023-09-30T02:06:41;102377.69;;;10.92;100.00
26443;BME280;5563;52.296;6.806;2023-09-30T02:09:18;102384.91;;;10.89;100.00
26443;BME280;5563;52.296;6.806;2023-09-30T02:11:56;102385.00;;;10.88;100.00
26443;BME280;5563;52.296;6.806;2023-09-30T02:14:31;102371.16;;;10.81;100.00
26443;BME280;5563;52.296;6.806;2023-09-30T02:17:12;102380.53;;;10.88;100.00
26443;BME280;5563;52.296;6.806;2023-09-30T02:19:47;102396.13;;;10.96;100.00
26443;BME280;5563;52.296;6.806;2023-09-30T02:22:25;102402.47;;;10.94;100.00
26443;BME280;5563;52.296;6.806;2023-09-30T02:25:00;102392.81;;;10.91;100.00
26443;BME280;5563;52.296;6.806;2023-09-30T02:27:39;102359.22;;;10.73;100.00
26443;BME280;5563;52.296;6.806;2023-09-30T02:30:13;102360.06;;;10.73;100.00
26443;BME280;5563;52.296;6.806;2023-09-30T02:32:50;102353.03;;;10.72;100.00
26443;BME280;5563;52.296;6.806;2023-09-30T02:35:18;102362.72;;;10.73;100.00
26443;BME280;5563;52.296;6.806;2023-09-30T02:38:12;102399.31;;;10.87;100.00
26443;BME280;5563;52.296;6.806;2023-09-30T02:40:50;102377.81;;;10.74;100.00
26443;BME280;5563;52.296;6.806;2023-09-30T02:43:36;102369.38;;;10.66;100.00
26443;BME280;5563;52.296;6.806;2023-09-30T02:46:24;102369.28;;;10.68;100.00
26443;BME280;5563;52.296;6.806;2023-09-30T02:49:02;102409.22;;;10.85;100.00
26443;BME280;5563;52.296;6.806;2023-09-30T02:51:45;102381.50;;;10.72;100.00
26443;BME280;5563;52.296;6.806;2023-09-30T02:54:27;102385.13;;;10.71;100.00
26443;BME280;5563;52.296;6.806;2023-09-30T02:57:00;102405.84;;;10.81;100.00
26443;BME280;5563;52.296;6.806;2023-09-30T02:59:41;102393.91;;;10.73;100.00
26443;BME280;5563;52.296;6.806;2023-09-30T03:02:15;102387.63;;;10.74;100.00
26443;BME280;5563;52.296;6.806;2023-09-30T03:04:44;102371.19;;;10.66;100.00
26443;BME280;5563;52.296;6.806;2023-09-30T03:07:22;102376.06;;;10.73;100.00
26443;BME280;5563;52.296;6.806;2023-09-30T03:09:56;102369.22;;;10.69;100.00
26443;BME280;5563;52.296;6.806;2023-09-30T03:12:49;102369.47;;;10.65;100.00
26443;BME280;5563;52.296;6.806;2023-09-30T03:15:32;102399.56;;;10.82;100.00
26443;BME280;5563;52.296;6.806;2023-09-30T03:18:08;102373.94;;;10.64;100.00
26443;BME280;5563;52.296;6.806;2023-09-30T03:20:46;102373.00;;;10.65;100.00
26443;BME280;5563;52.296;6.806;2023-09-30T03:23:25;102395.72;;;10.72;100.00
26443;BME280;5563;52.296;6.806;2023-09-30T03:26:05;102371.88;;;10.69;100.00
26443;BME280;5563;52.296;6.806;2023-09-30T03:28:47;102371.00;;;10.69;100.00
26443;BME280;5563;52.296;6.806;2023-09-30T03:34:28;102393.13;;;10.71;100.00
26443;BME280;5563;52.296;6.806;2023-09-30T03:37:06;102390.56;;;10.69;100.00
26443;BME280;5563;52.296;6.806;2023-09-30T03:39:47;102364.03;;;10.51;100.00
26443;BME280;5563;52.296;6.806;2023-09-30T03:42:25;102376.50;;;10.50;100.00
26443;BME280;5563;52.296;6.806;2023-09-30T03:45:10;102373.84;;;10.50;100.00
26443;BME280;5563;52.296;6.806;2023-09-30T03:47:48;102395.63;;;10.58;100.00
26443;BME280;5563;52.296;6.806;2023-09-30T03:50:21;102410.34;;;10.65;100.00
26443;BME280;5563;52.296;6.806;2023-09-30T03:53:08;102377.66;;;10.46;100.00
26443;BME280;5563;52.296;6.806;2023-09-30T03:55:51;102375.81;;;10.47;100.00
26443;BME280;5563;52.296;6.806;2023-09-30T03:58:29;102382.72;;;10.51;100.00
26443;BME280;5563;52.296;6.806;2023-09-30T04:00:59;102377.72;;;10.45;100.00
26443;BME280;5563;52.296;6.806;2023-09-30T04:03:38;102369.81;;;10.43;100.00
26443;BME280;5563;52.296;6.806;2023-09-30T04:06:23;102362.75;;;10.42;100.00
26443;BME280;5563;52.296;6.806;2023-09-30T04:08:53;102375.22;;;10.42;100.00
26443;BME280;5563;52.296;6.806;2023-09-30T04:11:31;102366.53;;;10.38;100.00
26443;BME280;5563;52.296;6.806;2023-09-30T04:14:03;102394.75;;;10.58;100.00
26443;BME280;5563;52.296;6.806;2023-09-30T04:16:38;102368.34;;;10.38;100.00
26443;BME280;5563;52.296;6.806;2023-09-30T04:19:10;102371.19;;;10.35;100.00
26443;BME280;5563;52.296;6.806;2023-09-30T04:21:58;102402.25;;;10.51;100.00
26443;BME280;5563;52.296;6.806;2023-09-30T04:24:36;102400.41;;;10.52;100.00
26443;BME280;5563;52.296;6.806;2023-09-30T04:27:16;102371.19;;;10.35;100.00
26443;BME280;5563;52.296;6.806;2023-09-30T04:29:44;102388.66;;;10.40;100.00
26443;BME280;5563;52.296;6.806;2023-09-30T04:32:36;102403.03;;;10.53;100.00
26443;BME280;5563;52.296;6.806;2023-09-30T04:35:17;102410.06;;;10.54;100.00
26443;BME280;5563;52.296;6.806;2023-09-30T04:38:01;102390.13;;;10.46;100.00
26443;BME280;5563;52.296;6.806;2023-09-30T04:40:40;102379.69;;;10.41;100.00
26443;BME280;5563;52.296;6.806;2023-09-30T04:43:18;102393.97;;;10.56;100.00
26443;BME280;5563;52.296;6.806;2023-09-30T04:45:55;102372.31;;;10.46;100.00
26443;BME280;5563;52.296;6.806;2023-09-30T04:48:34;102380.13;;;10.49;100.00
26443;BME280;5563;52.296;6.806;2023-09-30T04:51:10;102370.41;;;10.48;100.00
26443;BME280;5563;52.296;6.806;2023-09-30T04:53:54;102379.19;;;10.50;100.00
26443;BME280;5563;52.296;6.806;2023-09-30T04:56:38;102372.91;;;10.51;100.00
26443;BME280;5563;52.296;6.806;2023-09-30T04:59:18;102397.69;;;10.69;100.00
26443;BME280;5563;52.296;6.806;2023-09-30T05:02:02;102382.53;;;10.54;100.00
26443;BME280;5563;52.296;6.806;2023-09-30T05:04:40;102380.91;;;10.51;100.00
26443;BME280;5563;52.296;6.806;2023-09-30T05:07:20;102411.03;;;10.69;100.00
26443;BME280;5563;52.296;6.806;2023-09-30T05:09:58;102390.44;;;10.55;100.00
26443;BME280;5563;52.296;6.806;2023-09-30T05:12:29;102408.59;;;10.64;100.00
26443;BME280;5563;52.296;6.806;2023-09-30T05:15:07;102395.63;;;10.58;100.00
26443;BME280;5563;52.296;6.806;2023-09-30T05:17:48;102392.38;;;10.53;100.00
26443;BME280;5563;52.296;6.806;2023-09-30T05:20:31;102390.63;;;10.52;100.00
26443;BME280;5563;52.296;6.806;2023-09-30T05:23:11;102427.97;;;10.68;100.00
26443;BME280;5563;52.296;6.806;2023-09-30T05:25:49;102403.19;;;10.50;100.00
26443;BME280;5563;52.296;6.806;2023-09-30T05:28:36;102409.56;;;10.48;100.00
26443;BME280;5563;52.296;6.806;2023-09-30T05:31:07;102408.00;;;10.44;100.00
26443;BME280;5563;52.296;6.806;2023-09-30T05:33:48;102418.25;;;10.51;100.00
26443;BME280;5563;52.296;6.806;2023-09-30T05:36:22;102441.56;;;10.63;100.00
26443;BME280;5563;52.296;6.806;2023-09-30T05:39:01;102445.94;;;10.64;100.00
26443;BME280;5563;52.296;6.806;2023-09-30T05:41:41;102431.41;;;10.54;100.00
26443;BME280;5563;52.296;6.806;2023-09-30T05:44:21;102457.38;;;10.66;100.00
26443;BME280;5563;52.296;6.806;2023-09-30T05:46:53;102424.59;;;10.49;100.00
26443;BME280;5563;52.296;6.806;2023-09-30T05:49:35;102429.16;;;10.47;100.00
26443;BME280;5563;52.296;6.806;2023-09-30T05:52:09;102462.91;;;10.63;100.00
26443;BME280;5563;52.296;6.806;2023-09-30T05:54:46;102466.53;;;10.62;100.00
26443;BME280;5563;52.296;6.806;2023-09-30T05:57:28;102431.03;;;10.45;100.00
26443;BME280;5563;52.296;6.806;2023-09-30T06:00:05;102437.84;;;10.50;100.00
26443;BME280;5563;52.296;6.806;2023-09-30T06:02:56;102454.91;;;10.63;100.00
26443;BME280;5563;52.296;6.806;2023-09-30T06:05:41;102454.91;;;10.63;100.00
26443;BME280;5563;52.296;6.806;2023-09-30T06:08:10;102461.94;;;10.64;100.00
26443;BME280;5563;52.296;6.806;2023-09-30T06:10:57;102451.78;;;10.55;100.00
26443;BME280;5563;52.296;6.806;2023-09-30T06:13:42;102467.22;;;10.66;100.00
26443;BME280;5563;52.296;6.806;2023-09-30T06:16:19;102428.91;;;10.51;100.00
26443;BME280;5563;52.296;6.806;2023-09-30T06:18:47;102433.97;;;10.56;100.00
26443;BME280;5563;52.296;6.806;2023-09-30T06:21:24;102434.75;;;10.58;100.00
26443;BME280;5563;52.296;6.806;2023-09-30T06:24:12;102471.97;;;10.76;100.00
26443;BME280;5563;52.296;6.806;2023-09-30T06:27:01;102438.13;;;10.61;100.00
26443;BME280;5563;52.296;6.806;2023-09-30T06:29:37;102471.69;;;10.81;100.00
26443;BME280;5563;52.296;6.806;2023-09-30T06:32:14;102437.00;;;10.65;100.00
26443;BME280;5563;52.296;6.806;2023-09-30T06:34:54;102457.66;;;10.77;100.00
26443;BME280;5563;52.296;6.806;2023-09-30T06:37:30;102479.28;;;10.88;100.00
26443;BME280;5563;52.296;6.806;2023-09-30T06:39:59;102447.94;;;10.76;100.00
26443;BME280;5563;52.296;6.806;2023-09-30T06:42:39;102450.53;;;10.78;100.00
26443;BME280;5563;52.296;6.806;2023-09-30T06:45:10;102443.13;;;10.83;100.00
26443;BME280;5563;52.296;6.806;2023-09-30T06:47:48;102448.13;;;10.89;100.00
26443;BME280;5563;52.296;6.806;2023-09-30T06:50:28;102451.19;;;10.97;100.00
26443;BME280;5563;52.296;6.806;2023-09-30T06:53:18;102455.94;;;11.08;100.00
26443;BME280;5563;52.296;6.806;2023-09-30T06:56:04;102480.50;;;11.28;100.00
26443;BME280;5563;52.296;6.806;2023-09-30T06:58:56;102461.41;;;11.20;100.00
26443;BME280;5563;52.296;6.806;2023-09-30T07:01:26;102482.22;;;11.45;100.00
26443;BME280;5563;52.296;6.806;2023-09-30T07:04:01;102468.50;;;11.51;100.00
26443;BME280;5563;52.296;6.806;2023-09-30T07:06:35;102452.06;;;11.43;100.00
26443;BME280;5563;52.296;6.806;2023-09-30T07:09:12;102466.81;;;11.64;100.00
26443;BME280;5563;52.296;6.806;2023-09-30T07:11:46;102456.41;;;11.59;100.00
26443;BME280;5563;52.296;6.806;2023-09-30T07:14:26;102479.56;;;11.74;100.00
26443;BME280;5563;52.296;6.806;2023-09-30T07:17:00;102473.69;;;11.83;100.00
26443;BME280;5563;52.296;6.806;2023-09-30T07:19:50;102474.34;;;11.87;100.00
26443;BME280;5563;52.296;6.806;2023-09-30T07:22:37;102500.44;;;12.12;100.00
26443;BME280;5563;52.296;6.806;2023-09-30T07:25:28;102494.44;;;12.22;100.00
26443;BME280;5563;52.296;6.806;2023-09-30T07:28:09;102470.09;;;12.13;100.00
26443;BME280;5563;52.296;6.806;2023-09-30T07:30:58;102486.06;;;12.28;100.00
26443;BME280;5563;52.296;6.806;2023-09-30T07:33:28;102484.72;;;12.35;100.00
26443;BME280;5563;52.296;6.806;2023-09-30T07:36:04;102490.63;;;12.40;100.00
26443;BME280;5563;52.296;6.806;2023-09-30T07:38:36;102497.22;;;12.49;100.00
26443;BME280;5563;52.296;6.806;2023-09-30T07:41:10;102515.56;;;12.69;100.00
26443;BME280;5563;52.296;6.806;2023-09-30T07:43:49;102511.00;;;12.71;100.00
26443;BME280;5563;52.296;6.806;2023-09-30T07:46:26;102529.44;;;12.89;100.00
26443;BME280;5563;52.296;6.806;2023-09-30T07:48:57;102513.44;;;12.88;100.00
26443;BME280;5563;52.296;6.806;2023-09-30T07:51:40;102531.03;;;13.06;100.00
26443;BME280;5563;52.296;6.806;2023-09-30T07:54:17;102532.09;;;13.18;100.00
26443;BME280;5563;52.296;6.806;2023-09-30T07:57:03;102528.22;;;13.22;100.00
26443;BME280;5563;52.296;6.806;2023-09-30T07:59:43;102516.56;;;13.23;100.00
26443;BME280;5563;52.296;6.806;2023-09-30T08:02:18;102504.69;;;13.27;100.00
26443;BME280;5563;52.296;6.806;2023-09-30T08:05:10;102503.34;;;13.34;100.00
26443;BME280;5563;52.296;6.806;2023-09-30T08:07:43;102533.31;;;13.53;100.00
26443;BME280;5563;52.296;6.806;2023-09-30T08:10:25;102518.09;;;13.53;100.00
26443;BME280;5563;52.296;6.806;2023-09-30T08:13:00;102508.69;;;13.60;100.00
26443;BME280;5563;52.296;6.806;2023-09-30T08:15:40;102513.97;;;13.74;100.00
26443;BME280;5563;52.296;6.806;2023-09-30T08:18:21;102542.75;;;13.97;100.00
26443;BME280;5563;52.296;6.806;2023-09-30T08:21:02;102540.63;;;14.02;100.00
26443;BME280;5563;52.296;6.806;2023-09-30T08:23:40;102547.81;;;14.15;100.00
26443;BME280;5563;52.296;6.806;2023-09-30T08:26:13;102536.97;;;14.16;100.00
26443;BME280;5563;52.296;6.806;2023-09-30T08:28:50;102555.94;;;14.40;100.00
26443;BME280;5563;52.296;6.806;2023-09-30T08:31:31;102558.72;;;14.51;100.00
26443;BME280;5563;52.296;6.806;2023-09-30T08:34:23;102547.44;;;14.58;100.00
26443;BME280;5563;52.296;6.806;2023-09-30T08:37:03;102564.69;;;14.79;100.00
26443;BME280;5563;52.296;6.806;2023-09-30T08:39:44;102538.06;;;14.76;100.00
26443;BME280;5563;52.296;6.806;2023-09-30T08:42:22;102541.25;;;14.94;100.00
26443;BME280;5563;52.296;6.806;2023-09-30T08:44:54;102531.59;;;15.04;100.00
26443;BME280;5563;52.296;6.806;2023-09-30T08:47:32;102526.81;;;15.20;100.00
26443;BME280;5563;52.296;6.806;2023-09-30T08:50:10;102557.53;;;15.52;100.00
26443;BME280;5563;52.296;6.806;2023-09-30T08:52:56;102564.25;;;15.70;100.00
26443;BME280;5563;52.296;6.806;2023-09-30T08:55:35;102551.22;;;15.77;100.00
26443;BME280;5563;52.296;6.806;2023-09-30T08:58:19;102552.59;;;15.93;99.97
26443;BME280;5563;52.296;6.806;2023-09-30T09:00:50;102536.88;;;16.11;99.28
26443;BME280;5563;52.296;6.806;2023-09-30T09:03:28;102517.84;;;16.14;98.12
26443;BME280;5563;52.296;6.806;2023-09-30T09:06:15;102500.44;;;16.18;97.66
26443;BME280;5563;52.296;6.806;2023-09-30T09:09:15;102501.47;;;16.28;97.25
26443;BME280;5563;52.296;6.806;2023-09-30T09:11:50;102505.50;;;16.45;96.54
26443;BME280;5563;52.296;6.806;2023-09-30T09:14:39;102499.91;;;16.59;95.56
26443;BME280;5563;52.296;6.806;2023-09-30T09:17:29;102532.59;;;16.98;94.46
26443;BME280;5563;52.296;6.806;2023-09-30T09:20:09;102526.03;;;17.34;94.38
26443;BME280;5563;52.296;6.806;2023-09-30T09:22:44;102508.81;;;17.57;92.41
26443;BME280;5563;52.296;6.806;2023-09-30T09:25:23;102534.81;;;18.10;91.40
26443;BME280;5563;52.296;6.806;2023-09-30T09:27:58;102502.72;;;18.38;89.00
26443;BME280;5563;52.296;6.806;2023-09-30T09:30:40;102519.06;;;18.96;89.62
26443;BME280;5563;52.296;6.806;2023-09-30T09:33:09;102538.84;;;19.37;86.76
26443;BME280;5563;52.296;6.806;2023-09-30T09:35:48;102540.31;;;19.79;84.05
26443;BME280;5563;52.296;6.806;2023-09-30T09:38:16;102505.41;;;19.85;80.56
26443;BME280;5563;52.296;6.806;2023-09-30T09:40:59;102517.38;;;20.02;79.73
26443;BME280;5563;52.296;6.806;2023-09-30T09:43:27;102541.03;;;20.19;79.88
26443;BME280;5563;52.296;6.806;2023-09-30T09:46:09;102534.72;;;20.37;79.69
26443;BME280;5563;52.296;6.806;2023-09-30T09:48:46;102555.28;;;20.77;79.71
26443;BME280;5563;52.296;6.806;2023-09-30T09:51:27;102549.81;;;20.86;75.99
26443;BME280;5563;52.296;6.806;2023-09-30T09:54:07;102555.78;;;20.99;75.98
26443;BME280;5563;52.296;6.806;2023-09-30T09:56:56;102557.59;;;21.08;72.61
26443;BME280;5563;52.296;6.806;2023-09-30T09:59:43;102563.94;;;20.99;73.03
26443;BME280;5563;52.296;6.806;2023-09-30T10:02:40;102544.47;;;21.04;74.66
26443;BME280;5563;52.296;6.806;2023-09-30T10:05:16;102544.00;;;21.18;73.18
26443;BME280;5563;52.296;6.806;2023-09-30T10:08:14;102535.06;;;21.25;69.33
26443;BME280;5563;52.296;6.806;2023-09-30T10:10:53;102533.38;;;21.24;69.46
26443;BME280;5563;52.296;6.806;2023-09-30T10:13:58;102529.50;;;21.27;69.79
26443;BME280;5563;52.296;6.806;2023-09-30T10:19:23;102535.34;;;21.32;69.50
26443;BME280;5563;52.296;6.806;2023-09-30T10:25:01;102540.63;;;21.33;67.35
26443;BME280;5563;52.296;6.806;2023-09-30T10:27:32;102550.59;;;21.33;67.05
26443;BME280;5563;52.296;6.806;2023-09-30T10:30:11;102544.22;;;21.52;65.84
26443;BME280;5563;52.296;6.806;2023-09-30T10:41:02;102559.69;;;20.78;64.79
26443;BME280;5563;52.296;6.806;2023-09-30T10:48:55;102554.53;;;19.90;68.87
26443;BME280;5563;52.296;6.806;2023-09-30T10:51:41;102560.41;;;20.24;68.76
26443;BME280;5563;52.296;6.806;2023-09-30T10:54:22;102541.56;;;20.32;68.15
26443;BME280;5563;52.296;6.806;2023-09-30T10:57:14;102530.44;;;20.35;67.69
26443;BME280;5563;52.296;6.806;2023-09-30T11:00:18;102574.94;;;20.32;68.29
26443;BME280;5563;52.296;6.806;2023-09-30T11:03:06;102526.78;;;19.79;68.43
26443;BME280;5563;52.296;6.806;2023-09-30T11:05:50;102529.75;;;19.57;67.86
26443;BME280;5563;52.296;6.806;2023-09-30T11:08:41;102527.84;;;19.28;68.29
26443;BME280;5563;52.296;6.806;2023-09-30T11:11:43;102527.78;;;19.09;70.59
26443;BME280;5563;52.296;6.806;2023-09-30T11:17:03;102520.69;;;19.18;68.01
26443;BME280;5563;52.296;6.806;2023-09-30T11:19:48;102521.22;;;19.71;67.89
26443;BME280;5563;52.296;6.806;2023-09-30T11:22:21;102528.19;;;19.92;67.00
26443;BME280;5563;52.296;6.806;2023-09-30T11:24:55;102527.78;;;19.87;61.52
26443;BME280;5563;52.296;6.806;2023-09-30T11:27:32;102524.19;;;19.87;61.88
26443;BME280;5563;52.296;6.806;2023-09-30T11:30:10;102520.91;;;20.12;61.29
26443;BME280;5563;52.296;6.806;2023-09-30T11:32:44;102532.09;;;20.55;60.38
26443;BME280;5563;52.296;6.806;2023-09-30T11:35:24;102519.56;;;20.91;58.31
26443;BME280;5563;52.296;6.806;2023-09-30T11:37:57;102546.31;;;21.30;58.59
26443;BME280;5563;52.296;6.806;2023-09-30T11:40:32;102522.84;;;21.21;58.14
26443;BME280;5563;52.296;6.806;2023-09-30T11:43:10;102532.38;;;21.43;56.68
26443;BME280;5563;52.296;6.806;2023-09-30T11:45:46;102514.84;;;21.20;56.77
26443;BME280;5563;52.296;6.806;2023-09-30T11:48:32;102518.94;;;20.70;58.10
26443;BME280;5563;52.296;6.806;2023-09-30T11:51:00;102546.44;;;20.75;59.08
26443;BME280;5563;52.296;6.806;2023-09-30T11:53:41;102512.91;;;20.76;60.18
26443;BME280;5563;52.296;6.806;2023-09-30T11:59:45;102528.16;;;21.76;54.35
26443;BME280;5563;52.296;6.806;2023-09-30T12:02:20;102495.34;;;21.87;53.75
26443;BME280;5563;52.296;6.806;2023-09-30T12:04:48;102505.66;;;22.01;51.53
26443;BME280;5563;52.296;6.806;2023-09-30T12:07:51;102503.63;;;22.03;51.00
26443;BME280;5563;52.296;6.806;2023-09-30T12:10:32;102503.63;;;22.28;50.97
26443;BME280;5563;52.296;6.806;2023-09-30T12:13:10;102486.41;;;22.63;51.36
26443;BME280;5563;52.296;6.806;2023-09-30T12:15:49;102499.81;;;22.98;52.34
26443;BME280;5563;52.296;6.806;2023-09-30T12:18:21;102494.72;;;23.11;49.62
26443;BME280;5563;52.296;6.806;2023-09-30T12:21:04;102492.50;;;23.07;49.65
26443;BME280;5563;52.296;6.806;2023-09-30T12:23:36;102488.28;;;23.12;50.83
26443;BME280;5563;52.296;6.806;2023-09-30T12:26:15;102508.19;;;23.13;46.99
26443;BME280;5563;52.296;6.806;2023-09-30T12:28:53;102506.09;;;22.99;47.40
26443;BME280;5563;52.296;6.806;2023-09-30T12:31:34;102527.00;;;22.98;48.30
26443;BME280;5563;52.296;6.806;2023-09-30T12:34:35;102515.41;;;22.37;49.89
26443;BME280;5563;52.296;6.806;2023-09-30T12:37:12;102496.19;;;21.70;51.17
26443;BME280;5563;52.296;6.806;2023-09-30T12:39:42;102505.19;;;21.35;52.93
26443;BME280;5563;52.296;6.806;2023-09-30T12:42:19;102486.19;;;20.81;54.21
26443;BME280;5563;52.296;6.806;2023-09-30T12:48:12;102474.59;;;20.15;56.04
26443;BME280;5563;52.296;6.806;2023-09-30T12:50:48;102469.34;;;19.94;56.99
26443;BME280;5563;52.296;6.806;2023-09-30T12:53:54;102479.50;;;19.83;58.27
26443;BME280;5563;52.296;6.806;2023-09-30T12:56:35;102456.25;;;19.90;59.29
26443;BME280;5563;52.296;6.806;2023-09-30T12:59:21;102464.34;;;20.55;57.78
26443;BME280;5563;52.296;6.806;2023-09-30T13:01:54;102479.28;;;21.23;57.05
26443;BME280;5563;52.296;6.806;2023-09-30T13:04:55;102459.19;;;21.86;54.89
26443;BME280;5563;52.296;6.806;2023-09-30T13:07:27;102482.22;;;22.25;52.70
26443;BME280;5563;52.296;6.806;2023-09-30T13:10:03;102468.22;;;22.38;52.09
26443;BME280;5563;52.296;6.806;2023-09-30T13:12:38;102472.13;;;22.69;50.03
26443;BME280;5563;52.296;6.806;2023-09-30T13:15:29;102470.47;;;22.76;50.15
26443;BME280;5563;52.296;6.806;2023-09-30T13:17:57;102461.06;;;22.63;51.28
26443;BME280;5563;52.296;6.806;2023-09-30T13:20:40;102466.69;;;22.69;50.48
26443;BME280;5563;52.296;6.806;2023-09-30T13:23:14;102482.00;;;22.70;50.12
26443;BME280;5563;52.296;6.806;2023-09-30T13:25:52;102461.41;;;22.68;50.26
26443;BME280;5563;52.296;6.806;2023-09-30T13:28:20;102469.75;;;22.74;48.37
26443;BME280;5563;52.296;6.806;2023-09-30T13:30:54;102439.38;;;22.87;48.57
26443;BME280;5563;52.296;6.806;2023-09-30T13:37:16;102448.50;;;23.27;48.89
26443;BME280;5563;52.296;6.806;2023-09-30T13:39:51;102428.31;;;23.38;48.05
26443;BME280;5563;52.296;6.806;2023-09-30T13:42:24;102442.97;;;23.53;47.10
26443;BME280;5563;52.296;6.806;2023-09-30T13:44:52;102445.31;;;23.40;48.05
26443;BME280;5563;52.296;6.806;2023-09-30T13:51:17;102437.34;;;23.63;47.04
26443;BME280;5563;52.296;6.806;2023-09-30T14:00:47;102424.69;;;23.21;48.26
26443;BME280;5563;52.296;6.806;2023-09-30T14:06:35;102441.16;;;23.12;48.65
26443;BME280;5563;52.296;6.806;2023-09-30T14:09:03;102423.97;;;23.11;47.04
26443;BME280;5563;52.296;6.806;2023-09-30T14:11:55;102442.53;;;23.24;46.68
26443;BME280;5563;52.296;6.806;2023-09-30T14:14:28;102443.56;;;23.23;48.37
26443;BME280;5563;52.296;6.806;2023-09-30T14:16:55;102456.06;;;23.49;47.00
26443;BME280;5563;52.296;6.806;2023-09-30T14:19:29;102433.25;;;23.42;47.90
26443;BME280;5563;52.296;6.806;2023-09-30T14:21:56;102453.69;;;23.54;46.98
26443;BME280;5563;52.296;6.806;2023-09-30T14:24:25;102443.63;;;23.63;48.50
26443;BME280;5563;52.296;6.806;2023-09-30T14:27:00;102414.19;;;23.50;46.85
26443;BME280;5563;52.296;6.806;2023-09-30T14:29:32;102427.47;;;23.45;47.36
26443;BME280;5563;52.296;6.806;2023-09-30T14:32:09;102439.03;;;23.47;47.91
26443;BME280;5563;52.296;6.806;2023-09-30T14:34:37;102433.84;;;23.12;48.44
26443;BME280;5563;52.296;6.806;2023-09-30T14:37:12;102412.41;;;23.01;48.64
26443;BME280;5563;52.296;6.806;2023-09-30T14:39:40;102433.16;;;23.10;49.34
26443;BME280;5563;52.296;6.806;2023-09-30T14:42:27;102424.84;;;23.12;48.54
26443;BME280;5563;52.296;6.806;2023-09-30T14:45:17;102450.59;;;23.33;49.01